sensor_id;sensor_type;location;lat;lon;timestamp;pressure;altitude;pressure_sealevel;temperature;humidity
20656;BME280;10487;53.320;8.672;2023-08-12T00:01:58;101515.44;;;19.38;49.66
20656;BME280;10487;53.320;8.672;2023-08-12T00:05:00;101516.59;;;19.36;49.65
20656;BME280;10487;53.320;8.672;2023-08-12T00:08:01;101516.03;;;19.32;49.74
20656;BME280;10487;53.320;8.672;2023-08-12T00:11:03;101512.63;;;19.30;49.74
20656;BME280;10487;53.320;8.672;2023-08-12T00:14:05;101518.34;;;19.27;49.65
20656;BME280;10487;53.320;8.672;2023-08-12T00:17:06;101519.47;;;19.25;49.90
20656;BME280;10487;53.320;8.672;2023-08-12T00:20:09;101517.06;;;19.22;49.96
20656;BME280;10487;53.320;8.672;2023-08-12T00:23:13;101513.84;;;19.18;50.16
20656;BME280;10487;53.320;8.672;2023-08-12T00:26:15;101499.34;;;19.10;49.98
20656;BME280;10487;53.320;8.672;2023-08-12T00:29:17;101486.84;;;18.99;50.32
20656;BME280;10487;53.320;8.672;2023-08-12T00:32:18;101497.41;;;18.93;50.53
20656;BME280;10487;53.320;8.672;2023-08-12T00:35:20;101493.16;;;18.90;50.10
20656;BME280;10487;53.320;8.672;2023-08-12T00:38:21;101491.44;;;18.89;50.25
20656;BME280;10487;53.320;8.672;2023-08-12T00:41:23;101490.59;;;18.89;50.37
20656;BME280;10487;53.320;8.672;2023-08-12T00:44:25;101489.75;;;18.88;50.25
20656;BME280;10487;53.320;8.672;2023-08-12T00:47:28;101495.44;;;18.85;50.37
20656;BME280;10487;53.320;8.672;2023-08-12T00:50:30;101498.31;;;18.83;50.62
20656;BME280;10487;53.320;8.672;2023-08-12T00:53:33;101494.91;;;18.81;50.46
20656;BME280;10487;53.320;8.672;2023-08-12T00:56:35;101493.19;;;18.80;50.23
20656;BME280;10487;53.320;8.672;2023-08-12T00:59:38;101482.81;;;18.76;50.75
20656;BME280;10487;53.320;8.672;2023-08-12T01:02:43;101484.44;;;18.69;50.83
20656;BME280;10487;53.320;8.672;2023-08-12T01:05:47;101491.81;;;18.67;50.71
20656;BME280;10487;53.320;8.672;2023-08-12T01:08:49;101493.81;;;18.65;50.90
20656;BME280;10487;53.320;8.672;2023-08-12T01:12:01;101497.53;;;18.64;50.48
20656;BME280;10487;53.320;8.672;2023-08-12T01:15:08;101485.00;;;18.63;50.91
20656;BME280;10487;53.320;8.672;2023-08-12T01:18:13;101494.41;;;18.59;50.59
20656;BME280;10487;53.320;8.672;2023-08-12T01:21:16;101503.66;;;18.56;50.59
20656;BME280;10487;53.320;8.672;2023-08-12T01:24:21;101510.91;;;18.56;50.65
20656;BME280;10487;53.320;8.672;2023-08-12T01:27:23;101503.78;;;18.55;51.05
20656;BME280;10487;53.320;8.672;2023-08-12T01:30:25;101491.31;;;18.54;50.80
20656;BME280;10487;53.320;8.672;2023-08-12T01:33:42;101500.41;;;18.53;51.15
20656;BME280;10487;53.320;8.672;2023-08-12T01:36:51;101506.66;;;18.53;50.73
20656;BME280;10487;53.320;8.672;2023-08-12T01:39:56;101501.25;;;18.53;51.13
20656;BME280;10487;53.320;8.672;2023-08-12T01:43:01;101505.78;;;18.53;50.91
20656;BME280;10487;53.320;8.672;2023-08-12T01:46:04;101508.50;;;18.53;50.88
20656;BME280;10487;53.320;8.672;2023-08-12T01:49:06;101502.09;;;18.54;50.98
20656;BME280;10487;53.320;8.672;2023-08-12T01:52:07;101490.44;;;18.53;51.29
20656;BME280;10487;53.320;8.672;2023-08-12T01:55:09;101478.06;;;18.51;51.43
20656;BME280;10487;53.320;8.672;2023-08-12T01:58:11;101475.81;;;18.46;51.20
20656;BME280;10487;53.320;8.672;2023-08-12T02:01:13;101485.75;;;18.46;51.06
20656;BME280;10487;53.320;8.672;2023-08-12T02:04:15;101473.41;;;18.43;51.09
20656;BME280;10487;53.320;8.672;2023-08-12T02:07:16;101479.78;;;18.42;51.42
20656;BME280;10487;53.320;8.672;2023-08-12T02:10:18;101480.81;;;18.41;51.38
20656;BME280;10487;53.320;8.672;2023-08-12T02:13:20;101487.34;;;18.39;51.59
20656;BME280;10487;53.320;8.672;2023-08-12T02:16:21;101478.56;;;18.37;51.32
20656;BME280;10487;53.320;8.672;2023-08-12T02:19:23;101482.34;;;18.34;51.56
20656;BME280;10487;53.320;8.672;2023-08-12T02:22:25;101496.84;;;18.33;51.36
20656;BME280;10487;53.320;8.672;2023-08-12T02:25:26;101495.28;;;18.31;51.38
20656;BME280;10487;53.320;8.672;2023-08-12T02:28:28;101498.28;;;18.28;51.50
20656;BME280;10487;53.320;8.672;2023-08-12T02:31:30;101478.81;;;18.24;51.46
20656;BME280;10487;53.320;8.672;2023-08-12T02:34:32;101459.22;;;18.22;51.67
20656;BME280;10487;53.320;8.672;2023-08-12T02:37:33;101452.97;;;18.22;52.00
20656;BME280;10487;53.320;8.672;2023-08-12T02:40:35;101457.50;;;18.21;51.93
20656;BME280;10487;53.320;8.672;2023-08-12T02:43:37;101456.63;;;18.20;52.04
20656;BME280;10487;53.320;8.672;2023-08-12T02:46:38;101460.34;;;18.19;51.88
20656;BME280;10487;53.320;8.672;2023-08-12T02:49:40;101456.81;;;18.19;52.12
20656;BME280;10487;53.320;8.672;2023-08-12T02:52:42;101450.38;;;18.20;52.04
20656;BME280;10487;53.320;8.672;2023-08-12T02:55:46;101437.75;;;18.20;52.10
20656;BME280;10487;53.320;8.672;2023-08-12T02:58:48;101435.31;;;18.17;52.25
20656;BME280;10487;53.320;8.672;2023-08-12T03:01:50;101431.22;;;18.13;51.92
20656;BME280;10487;53.320;8.672;2023-08-12T03:04:52;101418.84;;;18.11;52.36
20656;BME280;10487;53.320;8.672;2023-08-12T03:07:55;101422.84;;;18.07;52.51
20656;BME280;10487;53.320;8.672;2023-08-12T03:11:01;101419.44;;;18.05;52.14
20656;BME280;10487;53.320;8.672;2023-08-12T03:14:03;101413.31;;;18.03;52.06
20656;BME280;10487;53.320;8.672;2023-08-12T03:17:05;101418.19;;;17.99;52.19
20656;BME280;10487;53.320;8.672;2023-08-12T03:20:07;101407.78;;;17.95;52.26
20656;BME280;10487;53.320;8.672;2023-08-12T03:23:10;101399.31;;;17.90;52.55
20656;BME280;10487;53.320;8.672;2023-08-12T03:26:11;101400.72;;;17.84;52.72
20656;BME280;10487;53.320;8.672;2023-08-12T03:29:13;101401.72;;;17.83;52.75
20656;BME280;10487;53.320;8.672;2023-08-12T03:32:15;101402.56;;;17.84;52.78
20656;BME280;10487;53.320;8.672;2023-08-12T03:35:16;101407.81;;;17.85;52.38
20656;BME280;10487;53.320;8.672;2023-08-12T03:38:20;101400.56;;;17.86;52.91
20656;BME280;10487;53.320;8.672;2023-08-12T03:41:22;101403.28;;;17.86;52.58
20656;BME280;10487;53.320;8.672;2023-08-12T03:44:24;101398.72;;;17.86;52.93
20656;BME280;10487;53.320;8.672;2023-08-12T03:47:25;101389.94;;;17.84;52.83
20656;BME280;10487;53.320;8.672;2023-08-12T03:50:27;101384.66;;;17.83;52.58
20656;BME280;10487;53.320;8.672;2023-08-12T03:53:29;101379.41;;;17.81;53.06
20656;BME280;10487;53.320;8.672;2023-08-12T03:56:30;101390.50;;;17.78;52.70
20656;BME280;10487;53.320;8.672;2023-08-12T03:59:32;101390.50;;;17.78;52.83
20656;BME280;10487;53.320;8.672;2023-08-12T04:02:34;101389.63;;;17.78;53.01
20656;BME280;10487;53.320;8.672;2023-08-12T04:05:36;101382.56;;;17.77;52.85
20656;BME280;10487;53.320;8.672;2023-08-12T04:08:37;101388.06;;;17.75;52.93
20656;BME280;10487;53.320;8.672;2023-08-12T04:11:39;101391.91;;;17.73;53.08
20656;BME280;10487;53.320;8.672;2023-08-12T04:14:41;101391.09;;;17.72;52.92
20656;BME280;10487;53.320;8.672;2023-08-12T04:17:42;101392.50;;;17.76;53.26
20656;BME280;10487;53.320;8.672;2023-08-12T04:20:45;101401.00;;;17.81;53.33
20656;BME280;10487;53.320;8.672;2023-08-12T04:23:48;101392.47;;;17.86;53.04
20656;BME280;10487;53.320;8.672;2023-08-12T04:26:50;101383.91;;;18.00;53.13
20656;BME280;10487;53.320;8.672;2023-08-12T04:29:51;101384.19;;;18.06;53.03
20656;BME280;10487;53.320;8.672;2023-08-12T04:32:53;101387.59;;;18.08;52.93
20656;BME280;10487;53.320;8.672;2023-08-12T04:35:55;101382.47;;;18.05;53.01
20656;BME280;10487;53.320;8.672;2023-08-12T04:38:56;101380.22;;;18.01;53.21
20656;BME280;10487;53.320;8.672;2023-08-12T04:41:58;101380.66;;;17.96;53.06
20656;BME280;10487;53.320;8.672;2023-08-12T04:45:00;101382.94;;;17.91;53.50
20656;BME280;10487;53.320;8.672;2023-08-12T04:48:02;101378.53;;;17.90;53.70
20656;BME280;10487;53.320;8.672;2023-08-12T04:51:04;101385.66;;;17.91;53.45
20656;BME280;10487;53.320;8.672;2023-08-12T04:54:07;101378.25;;;17.93;53.30
20656;BME280;10487;53.320;8.672;2023-08-12T04:57:09;101377.09;;;17.96;53.70
20656;BME280;10487;53.320;8.672;2023-08-12T05:00:12;101393.16;;;17.97;53.74
20656;BME280;10487;53.320;8.672;2023-08-12T05:03:14;101387.75;;;17.97;53.85
20656;BME280;10487;53.320;8.672;2023-08-12T05:06:15;101377.81;;;17.98;53.79
20656;BME280;10487;53.320;8.672;2023-08-12T05:09:17;101387.63;;;17.99;53.49
20656;BME280;10487;53.320;8.672;2023-08-12T05:12:19;101384.22;;;17.97;53.70
20656;BME280;10487;53.320;8.672;2023-08-12T05:15:20;101384.22;;;17.97;53.96
20656;BME280;10487;53.320;8.672;2023-08-12T05:18:22;101374.25;;;17.97;53.93
20656;BME280;10487;53.320;8.672;2023-08-12T05:21:27;101381.38;;;17.98;53.65
20656;BME280;10487;53.320;8.672;2023-08-12T05:24:29;101385.06;;;17.97;53.96
20656;BME280;10487;53.320;8.672;2023-08-12T05:27:31;101377.97;;;17.96;54.02
20656;BME280;10487;53.320;8.672;2023-08-12T05:30:34;101366.31;;;17.96;53.90
20656;BME280;10487;53.320;8.672;2023-08-12T05:33:35;101377.53;;;17.91;54.09
20656;BME280;10487;53.320;8.672;2023-08-12T05:36:37;101367.72;;;17.90;54.06
20656;BME280;10487;53.320;8.672;2023-08-12T05:39:39;101374.16;;;17.89;54.19
20656;BME280;10487;53.320;8.672;2023-08-12T05:42:41;101368.59;;;17.91;54.02
20656;BME280;10487;53.320;8.672;2023-08-12T05:45:42;101363.91;;;17.93;53.99
20656;BME280;10487;53.320;8.672;2023-08-12T05:48:44;101360.06;;;17.95;53.91
20656;BME280;10487;53.320;8.672;2023-08-12T05:51:46;101360.75;;;17.97;54.12
20656;BME280;10487;53.320;8.672;2023-08-12T05:54:48;101354.09;;;18.01;54.00
20656;BME280;10487;53.320;8.672;2023-08-12T05:57:50;101362.59;;;18.06;54.20
20656;BME280;10487;53.320;8.672;2023-08-12T06:00:52;101353.75;;;18.14;54.44
20656;BME280;10487;53.320;8.672;2023-08-12T06:03:54;101355.13;;;18.28;54.48
20656;BME280;10487;53.320;8.672;2023-08-12T06:06:55;101347.56;;;18.41;54.43
20656;BME280;10487;53.320;8.672;2023-08-12T06:09:57;101352.38;;;18.47;54.19
20656;BME280;10487;53.320;8.672;2023-08-12T06:12:59;101348.81;;;18.46;54.02
20656;BME280;10487;53.320;8.672;2023-08-12T06:16:00;101348.25;;;18.43;54.22
20656;BME280;10487;53.320;8.672;2023-08-12T06:19:03;101340.44;;;18.40;54.63
20656;BME280;10487;53.320;8.672;2023-08-12T06:22:04;101343.47;;;18.37;54.22
20656;BME280;10487;53.320;8.672;2023-08-12T06:25:06;101350.72;;;18.36;54.66
20656;BME280;10487;53.320;8.672;2023-08-12T06:28:08;101344.88;;;18.41;54.29
20656;BME280;10487;53.320;8.672;2023-08-12T06:31:11;101340.16;;;18.43;54.59
20656;BME280;10487;53.320;8.672;2023-08-12T06:34:13;101339.69;;;18.47;54.76
20656;BME280;10487;53.320;8.672;2023-08-12T06:37:14;101334.84;;;18.51;54.57
20656;BME280;10487;53.320;8.672;2023-08-12T06:40:16;101329.16;;;18.54;54.63
20656;BME280;10487;53.320;8.672;2023-08-12T06:43:18;101327.84;;;18.58;54.74
20656;BME280;10487;53.320;8.672;2023-08-12T06:46:20;101332.50;;;18.65;54.56
20656;BME280;10487;53.320;8.672;2023-08-12T06:49:22;101320.38;;;18.69;54.84
20656;BME280;10487;53.320;8.672;2023-08-12T06:52:24;101319.09;;;18.73;54.63
20656;BME280;10487;53.320;8.672;2023-08-12T06:55:26;101320.47;;;18.77;54.87
20656;BME280;10487;53.320;8.672;2023-08-12T06:58:27;101319.31;;;18.80;54.71
20656;BME280;10487;53.320;8.672;2023-08-12T07:01:29;101311.19;;;18.80;54.70
20656;BME280;10487;53.320;8.672;2023-08-12T07:04:31;101311.91;;;18.82;54.41
20656;BME280;10487;53.320;8.672;2023-08-12T07:07:33;101319.72;;;18.85;54.96
20656;BME280;10487;53.320;8.672;2023-08-12T07:10:38;101324.81;;;18.88;54.54
20656;BME280;10487;53.320;8.672;2023-08-12T07:13:40;101325.34;;;18.92;54.57
20656;BME280;10487;53.320;8.672;2023-08-12T07:16:41;101320.50;;;18.95;54.75
20656;BME280;10487;53.320;8.672;2023-08-12T07:19:43;101313.06;;;18.97;55.03
20656;BME280;10487;53.320;8.672;2023-08-12T07:22:45;101319.88;;;19.01;54.90
20656;BME280;10487;53.320;8.672;2023-08-12T07:25:47;101312.47;;;19.03;54.64
20656;BME280;10487;53.320;8.672;2023-08-12T07:28:49;101305.22;;;19.04;55.09
20656;BME280;10487;53.320;8.672;2023-08-12T07:31:52;101298.94;;;19.03;54.96
20656;BME280;10487;53.320;8.672;2023-08-12T07:34:53;101313.47;;;19.02;54.81
20656;BME280;10487;53.320;8.672;2023-08-12T07:37:55;101311.63;;;19.03;55.29
20656;BME280;10487;53.320;8.672;2023-08-12T07:40:57;101303.19;;;19.06;55.22
20656;BME280;10487;53.320;8.672;2023-08-12T07:43:59;101303.63;;;19.11;54.94
20656;BME280;10487;53.320;8.672;2023-08-12T07:47:00;101299.75;;;19.13;55.04
20656;BME280;10487;53.320;8.672;2023-08-12T07:50:02;101297.56;;;19.17;55.10
20656;BME280;10487;53.320;8.672;2023-08-12T07:53:04;101289.44;;;19.17;55.36
20656;BME280;10487;53.320;8.672;2023-08-12T07:56:06;101279.50;;;19.17;55.20
20656;BME280;10487;53.320;8.672;2023-08-12T07:59:07;101285.59;;;19.19;55.40
20656;BME280;10487;53.320;8.672;2023-08-12T08:02:09;101281.88;;;19.20;55.03
20656;BME280;10487;53.320;8.672;2023-08-12T08:05:11;101285.97;;;19.24;55.40
20656;BME280;10487;53.320;8.672;2023-08-12T08:08:13;101281.41;;;19.25;55.27
20656;BME280;10487;53.320;8.672;2023-08-12T08:11:15;101281.25;;;19.26;55.39
20656;BME280;10487;53.320;8.672;2023-08-12T08:14:17;101281.25;;;19.26;55.25
20656;BME280;10487;53.320;8.672;2023-08-12T08:17:19;101284.81;;;19.27;55.47
20656;BME280;10487;53.320;8.672;2023-08-12T08:20:21;101291.06;;;19.27;55.50
20656;BME280;10487;53.320;8.672;2023-08-12T08:23:22;101296.19;;;19.30;55.30
20656;BME280;10487;53.320;8.672;2023-08-12T08:26:24;101291.63;;;19.31;55.66
20656;BME280;10487;53.320;8.672;2023-08-12T08:29:27;101294.16;;;19.32;55.67
20656;BME280;10487;53.320;8.672;2023-08-12T08:32:29;101291.16;;;19.35;55.60
20656;BME280;10487;53.320;8.672;2023-08-12T08:35:31;101281.00;;;19.37;55.65
20656;BME280;10487;53.320;8.672;2023-08-12T08:38:33;101283.41;;;19.40;55.59
20656;BME280;10487;53.320;8.672;2023-08-12T08:41:38;101286.50;;;19.45;55.52
20656;BME280;10487;53.320;8.672;2023-08-12T08:44:42;101283.47;;;19.49;55.59
20656;BME280;10487;53.320;8.672;2023-08-12T08:47:45;101282.47;;;19.50;55.72
20656;BME280;10487;53.320;8.672;2023-08-12T08:50:48;101284.16;;;19.51;55.45
20656;BME280;10487;53.320;8.672;2023-08-12T08:53:54;101286.88;;;19.51;55.43
20656;BME280;10487;53.320;8.672;2023-08-12T08:56:57;101287.88;;;19.50;55.61
20656;BME280;10487;53.320;8.672;2023-08-12T09:00:04;101280.78;;;19.49;55.41
20656;BME280;10487;53.320;8.672;2023-08-12T09:03:17;101281.09;;;19.45;55.66
20656;BME280;10487;53.320;8.672;2023-08-12T09:06:20;101278.38;;;19.45;55.48
20656;BME280;10487;53.320;8.672;2023-08-12T09:09:25;101273.97;;;19.44;55.57
20656;BME280;10487;53.320;8.672;2023-08-12T09:12:27;101278.38;;;19.45;55.83
20656;BME280;10487;53.320;8.672;2023-08-12T09:15:29;101280.91;;;19.47;55.80
20656;BME280;10487;53.320;8.672;2023-08-12T09:18:32;101274.50;;;19.48;55.83
20656;BME280;10487;53.320;8.672;2023-08-12T09:21:34;101278.06;;;19.49;55.78
20656;BME280;10487;53.320;8.672;2023-08-12T09:24:36;101273.66;;;19.48;55.88
20656;BME280;10487;53.320;8.672;2023-08-12T09:27:38;101270.94;;;19.48;55.96
20656;BME280;10487;53.320;8.672;2023-08-12T09:30:40;101276.34;;;19.48;55.78
20656;BME280;10487;53.320;8.672;2023-08-12T09:33:42;101279.25;;;19.46;55.90
20656;BME280;10487;53.320;8.672;2023-08-12T09:36:44;101285.09;;;19.41;55.83
20656;BME280;10487;53.320;8.672;2023-08-12T09:39:52;101279.31;;;19.36;56.14
20656;BME280;10487;53.320;8.672;2023-08-12T09:42:54;101286.34;;;19.29;55.95
20656;BME280;10487;53.320;8.672;2023-08-12T09:45:57;101274.84;;;19.27;55.77
20656;BME280;10487;53.320;8.672;2023-08-12T09:49:00;101279.56;;;19.25;55.94
20656;BME280;10487;53.320;8.672;2023-08-12T09:52:04;101250.97;;;19.23;55.99
20656;BME280;10487;53.320;8.672;2023-08-12T09:55:08;101254.16;;;19.18;55.94
20656;BME280;10487;53.320;8.672;2023-08-12T09:58:11;101252.59;;;19.16;56.09
20656;BME280;10487;53.320;8.672;2023-08-12T10:01:19;101248.38;;;19.13;56.19
20656;BME280;10487;53.320;8.672;2023-08-12T10:04:28;101251.38;;;19.10;56.31
20656;BME280;10487;53.320;8.672;2023-08-12T10:07:31;101235.16;;;19.10;56.22
20656;BME280;10487;53.320;8.672;2023-08-12T10:10:35;101229.44;;;19.13;56.18
20656;BME280;10487;53.320;8.672;2023-08-12T10:13:37;101218.22;;;19.08;56.20
20656;BME280;10487;53.320;8.672;2023-08-12T10:16:42;101223.22;;;19.03;56.20
20656;BME280;10487;53.320;8.672;2023-08-12T10:19:47;101229.50;;;19.04;56.20
20656;BME280;10487;53.320;8.672;2023-08-12T10:22:50;101224.09;;;19.04;56.47
20656;BME280;10487;53.320;8.672;2023-08-12T10:25:55;101229.16;;;19.07;56.29
20656;BME280;10487;53.320;8.672;2023-08-12T10:28:57;101221.50;;;19.02;56.69
20656;BME280;10487;53.320;8.672;2023-08-12T10:32:01;101216.59;;;18.98;56.35
20656;BME280;10487;53.320;8.672;2023-08-12T10:35:05;101220.63;;;18.94;56.30
20656;BME280;10487;53.320;8.672;2023-08-12T10:38:07;101200.84;;;18.93;56.81
20656;BME280;10487;53.320;8.672;2023-08-12T10:41:22;101198.97;;;18.94;56.73
20656;BME280;10487;53.320;8.672;2023-08-12T10:44:51;101209.94;;;18.92;56.77
20656;BME280;10487;53.320;8.672;2023-08-12T10:51:01;101195.13;;;18.96;56.38
20656;BME280;10487;53.320;8.672;2023-08-12T10:57:37;101185.69;;;19.00;56.57
20656;BME280;10487;53.320;8.672;2023-08-12T11:00:42;101197.88;;;19.04;56.59
20656;BME280;10487;53.320;8.672;2023-08-12T11:03:48;101206.38;;;19.09;56.35
20656;BME280;10487;53.320;8.672;2023-08-12T11:06:51;101195.94;;;19.14;56.29
20656;BME280;10487;53.320;8.672;2023-08-12T11:09:59;101193.63;;;19.19;56.39
20656;BME280;10487;53.320;8.672;2023-08-12T11:13:02;101197.72;;;19.23;56.71
20656;BME280;10487;53.320;8.672;2023-08-12T11:16:09;101194.53;;;19.28;56.61
20656;BME280;10487;53.320;8.672;2023-08-12T11:19:11;101189.66;;;19.31;56.61
20656;BME280;10487;53.320;8.672;2023-08-12T11:22:14;101189.34;;;19.34;56.48
20656;BME280;10487;53.320;8.672;2023-08-12T11:25:16;101197.13;;;19.37;56.47
20656;BME280;10487;53.320;8.672;2023-08-12T11:28:21;101189.69;;;19.39;56.82
20656;BME280;10487;53.320;8.672;2023-08-12T11:31:23;101186.84;;;19.41;56.86
20656;BME280;10487;53.320;8.672;2023-08-12T11:34:25;101177.72;;;19.42;56.50
20656;BME280;10487;53.320;8.672;2023-08-12T11:37:28;101173.00;;;19.44;56.92
20656;BME280;10487;53.320;8.672;2023-08-12T11:40:30;101179.25;;;19.44;56.55
20656;BME280;10487;53.320;8.672;2023-08-12T11:43:32;101167.56;;;19.44;56.72
20656;BME280;10487;53.320;8.672;2023-08-12T11:46:35;101151.34;;;19.44;56.69
20656;BME280;10487;53.320;8.672;2023-08-12T11:49:37;101159.63;;;19.42;57.11
20656;BME280;10487;53.320;8.672;2023-08-12T11:52:39;101152.50;;;19.41;57.05
20656;BME280;10487;53.320;8.672;2023-08-12T11:55:42;101147.44;;;19.38;57.18
20656;BME280;10487;53.320;8.672;2023-08-12T11:58:48;101146.72;;;19.36;56.80
20656;BME280;10487;53.320;8.672;2023-08-12T12:01:54;101126.75;;;19.29;57.11
20656;BME280;10487;53.320;8.672;2023-08-12T12:04:56;101125.19;;;19.27;57.27
20656;BME280;10487;53.320;8.672;2023-08-12T12:08:01;101128.22;;;19.24;57.14
20656;BME280;10487;53.320;8.672;2023-08-12T12:11:05;101128.38;;;19.22;57.29
20656;BME280;10487;53.320;8.672;2023-08-12T12:14:09;101118.25;;;19.24;57.01
20656;BME280;10487;53.320;8.672;2023-08-12T12:17:11;101111.47;;;19.20;57.03
20656;BME280;10487;53.320;8.672;2023-08-12T12:20:14;101117.84;;;19.11;57.12
20656;BME280;10487;53.320;8.672;2023-08-12T12:23:16;101113.63;;;19.09;57.47
20656;BME280;10487;53.320;8.672;2023-08-12T12:26:18;101101.28;;;19.14;57.50
20656;BME280;10487;53.320;8.672;2023-08-12T12:29:19;101107.06;;;19.19;57.52
20656;BME280;10487;53.320;8.672;2023-08-12T12:32:21;101102.34;;;19.21;57.25
20656;BME280;10487;53.320;8.672;2023-08-12T12:35:23;101100.47;;;19.22;57.07
20656;BME280;10487;53.320;8.672;2023-08-12T12:38:26;101108.47;;;19.23;57.46
20656;BME280;10487;53.320;8.672;2023-08-12T12:41:28;101096.31;;;19.27;57.31
20656;BME280;10487;53.320;8.672;2023-08-12T12:44:29;101086.16;;;19.29;57.40
20656;BME280;10487;53.320;8.672;2023-08-12T12:47:31;101075.19;;;19.31;57.27
20656;BME280;10487;53.320;8.672;2023-08-12T12:50:33;101068.94;;;19.30;57.61
20656;BME280;10487;53.320;8.672;2023-08-12T12:53:34;101073.00;;;19.34;57.48
20656;BME280;10487;53.320;8.672;2023-08-12T12:56:36;101071.50;;;19.40;57.68
20656;BME280;10487;53.320;8.672;2023-08-12T12:59:38;101073.59;;;19.46;57.63
20656;BME280;10487;53.320;8.672;2023-08-12T13:02:41;101077.81;;;19.49;57.60
20656;BME280;10487;53.320;8.672;2023-08-12T13:05:43;101070.38;;;19.51;57.92
20656;BME280;10487;53.320;8.672;2023-08-12T13:08:45;101063.94;;;19.52;57.28
20656;BME280;10487;53.320;8.672;2023-08-12T13:11:46;101063.94;;;19.52;57.46
20656;BME280;10487;53.320;8.672;2023-08-12T13:14:48;101053.97;;;19.52;57.49
20656;BME280;10487;53.320;8.672;2023-08-12T13:17:50;101045.53;;;19.55;57.71
20656;BME280;10487;53.320;8.672;2023-08-12T13:20:51;101041.66;;;19.58;57.77
20656;BME280;10487;53.320;8.672;2023-08-12T13:23:53;101044.72;;;19.63;57.84
20656;BME280;10487;53.320;8.672;2023-08-12T13:26:56;101042.50;;;19.66;57.48
20656;BME280;10487;53.320;8.672;2023-08-12T13:30:00;101041.31;;;19.69;57.56
20656;BME280;10487;53.320;8.672;2023-08-12T13:33:03;101034.72;;;19.71;57.83
20656;BME280;10487;53.320;8.672;2023-08-12T13:36:05;101031.69;;;19.74;57.73
20656;BME280;10487;53.320;8.672;2023-08-12T13:39:06;101035.44;;;19.73;58.06
20656;BME280;10487;53.320;8.672;2023-08-12T13:42:08;101027.31;;;19.73;58.06
20656;BME280;10487;53.320;8.672;2023-08-12T13:45:11;101033.72;;;19.72;57.80
20656;BME280;10487;53.320;8.672;2023-08-12T13:48:12;101026.63;;;19.71;57.69
20656;BME280;10487;53.320;8.672;2023-08-12T13:51:14;101015.44;;;19.66;57.73
20656;BME280;10487;53.320;8.672;2023-08-12T13:54:16;101008.50;;;19.64;58.07
20656;BME280;10487;53.320;8.672;2023-08-12T13:57:17;101001.41;;;19.63;57.90
20656;BME280;10487;53.320;8.672;2023-08-12T14:00:19;100998.84;;;19.61;58.10
20656;BME280;10487;53.320;8.672;2023-08-12T14:03:21;101007.81;;;19.62;58.22
20656;BME280;10487;53.320;8.672;2023-08-12T14:06:22;101006.13;;;19.61;57.88
20656;BME280;10487;53.320;8.672;2023-08-12T14:09:24;101009.16;;;19.58;58.13
20656;BME280;10487;53.320;8.672;2023-08-12T14:12:26;100997.66;;;19.56;58.11
20656;BME280;10487;53.320;8.672;2023-08-12T14:15:28;101006.97;;;19.53;58.06
20656;BME280;10487;53.320;8.672;2023-08-12T14:18:30;101026.06;;;19.52;57.98
20656;BME280;10487;53.320;8.672;2023-08-12T14:21:31;101027.09;;;19.51;58.03
20656;BME280;10487;53.320;8.672;2023-08-12T14:24:33;101033.16;;;19.53;57.91
20656;BME280;10487;53.320;8.672;2023-08-12T14:27:34;101034.16;;;19.52;58.12
20656;BME280;10487;53.320;8.672;2023-08-12T14:30:36;101026.22;;;19.50;58.08
20656;BME280;10487;53.320;8.672;2023-08-12T14:33:38;101035.19;;;19.51;58.42
20656;BME280;10487;53.320;8.672;2023-08-12T14:36:40;101042.97;;;19.45;57.94
20656;BME280;10487;53.320;8.672;2023-08-12T14:39:41;101055.44;;;19.38;58.38
20656;BME280;10487;53.320;8.672;2023-08-12T14:42:43;101069.78;;;19.31;58.18
20656;BME280;10487;53.320;8.672;2023-08-12T14:45:45;101080.91;;;19.28;58.22
20656;BME280;10487;53.320;8.672;2023-08-12T14:48:49;101096.94;;;19.21;58.42
20656;BME280;10487;53.320;8.672;2023-08-12T14:51:54;101100.97;;;19.17;58.31
20656;BME280;10487;53.320;8.672;2023-08-12T14:54:56;101096.72;;;19.15;58.04
20656;BME280;10487;53.320;8.672;2023-08-12T14:57:58;101096.22;;;19.11;58.25
20656;BME280;10487;53.320;8.672;2023-08-12T15:01:00;101095.50;;;19.09;58.45
20656;BME280;10487;53.320;8.672;2023-08-12T15:04:02;101113.44;;;19.10;58.52
20656;BME280;10487;53.320;8.672;2023-08-12T15:07:04;101114.97;;;19.13;58.46
20656;BME280;10487;53.320;8.672;2023-08-12T15:10:06;101119.22;;;19.15;58.53
20656;BME280;10487;53.320;8.672;2023-08-12T15:13:08;101115.19;;;19.19;58.46
20656;BME280;10487;53.320;8.672;2023-08-12T15:16:09;101122.81;;;19.24;58.27
20656;BME280;10487;53.320;8.672;2023-08-12T15:19:12;101111.53;;;19.28;58.03
20656;BME280;10487;53.320;8.672;2023-08-12T15:22:14;101123.09;;;19.38;58.31
20656;BME280;10487;53.320;8.672;2023-08-12T15:25:16;101117.69;;;19.46;58.25
20656;BME280;10487;53.320;8.672;2023-08-12T15:28:18;101128.56;;;19.55;58.37
20656;BME280;10487;53.320;8.672;2023-08-12T15:31:19;101124.06;;;19.63;58.17
20656;BME280;10487;53.320;8.672;2023-08-12T15:34:21;101119.50;;;19.72;58.49
20656;BME280;10487;53.320;8.672;2023-08-12T15:37:23;101120.25;;;19.82;58.00
20656;BME280;10487;53.320;8.672;2023-08-12T15:40:25;101119.44;;;19.89;58.08
20656;BME280;10487;53.320;8.672;2023-08-12T15:43:27;101128.78;;;19.95;57.83
20656;BME280;10487;53.320;8.672;2023-08-12T15:46:28;101131.34;;;20.04;58.00
20656;BME280;10487;53.320;8.672;2023-08-12T15:49:31;101131.69;;;20.09;57.95
20656;BME280;10487;53.320;8.672;2023-08-12T15:52:34;101132.03;;;20.15;57.85
20656;BME280;10487;53.320;8.672;2023-08-12T15:55:36;101129.81;;;20.18;57.86
20656;BME280;10487;53.320;8.672;2023-08-12T15:58:38;101129.81;;;20.18;57.92
20656;BME280;10487;53.320;8.672;2023-08-12T16:01:40;101124.41;;;20.18;57.85